KMCF

Macdill AFB Airport

Tampa, Florida, USA
METAR KMCF 181556Z 24006KT 10SM CLR 25/19 A3026 RMK AO2A SLP250 T02510192 $
Observed Flight Rules
Dec-18 @ 15:56 UTC (31 minutes ago) Visual Flight Rules
Wind Visibility Clouds
240° at 6 knots 10 miles
  • Clear skies
Temperatures Readings
Current 25°C / 77°F
Dewpoint 19°C / 66°F
Humidity 69%
Altimeter 30.26" Hg
Pressure 1025 hPa
Elevation 4
METAR KMCF 181556Z 24006KT 10SM CLR 25/19 A3026 RMK AO2A SLP250 T02510192 $
Observed Flight Rules
Dec-18 @ 15:56 UTC
(31 minutes ago)
VFR
Wind Visibility
240° at 6 knots 10 miles
Clouds
  • Clear skies
Temperature Dewpoint
25°C / 77°F 19°C / 66°F
Humidity Altimeter Pressure
69% 30.26" Hg 1025 hPa